logo
Search for airport 
image banner adimage banner adimage banner ad
image banner ad

FALE - King Shaka International

Located in Durban, South Africa

ICAO - FALE, IATA - DUR

Data provided by Airmate  

General information

Coordinates: S29°36'42" E31°7'10"
Elevation is 304 feet MSL.
Magnetic variation is -25° East
View others Airports in Kwazulu-Natal

Operational data

Special qualification required
Current time UTC:
Current local time:
Weather
TAF: TAF FALE 281600Z 2818/2924 02005KT CAVOK TX24/2912Z TN11/2904Z BECMG 2820/2822 VRB03KT BECMG 2908/2910 03010KT
View NOTAMs / SUP AIP / TFR affecting this airport [VIEW]
Communications frequencies: [VIEW]

Runways:

RWY identifierQFULength (ft)Width (ft)SurfaceLDA (ft)
0637°12115187ASPH12139
24217°12115187ASPH12139

Airport contact information

Address: Durban South Africa

Other aviation service providers

Flight schools

Ballito Microlight

Ballito Microlight
comefly@mweb.co.za+27842663359

Satellite view of FALE